Main page
METAR-TAF:

METAR-TAF

Airports :

Angads Airport

Oujda, Morocco

latitude: 34-47N, longitude: 001-56W, elevation: 468 m

Current weather observation

The report was made 44 minutes ago, at 07:30 UTC
Wind 5 kt from the Northwest, varying between West/Northwest and North
Temperature 19°C
Humidity 52%
Pressure 1021 hPa
Visibility 10 km or more
no clouds below 1500 m and no cumulonimbus

METAR: GMFO 180730Z 32005KT 290V350 CAVOK 19/09 Q1021 NOSIG

Time: 09:14 (08:14 UTC)

Forecast

The report was made 3 hours and 14 minutes ago, at 05:00 UTC
Forecast valid from 18 at 06 UTC to 19 at 12 UTC
Wind 4 kt from the South/Southwest
Visibility 10 km or more
no clouds below 1500 m and no cumulonimbus
Becoming
from 18 at 14 UTC to 18 at 18 UTC
Wind 16 kt from the Northwest

TAF: GMFO 180500Z 1806/1912 20004KT CAVOK BECMG 1814/1818 32016KT

Weather observations and forecasts of more than 4000 airports (METAR and TAF reports).

The available stations are represented by yellow and red dots on the map.

Hover mouse over dot to see the name of the station.

Then click to see weather observations and forecasts.

To change the map : click on the green buttons with a black cross to zoom in, on the green button with a dash to zoom out, or on the green arrows for adjacent maps.


METAR-TAF: